Time;durP1;ratioP1;P1;durP2;ratioP2;P2;SDS_P1;SDS_P2;PMS_P1;PMS_P2;Temp;Humidity;BMP_temperature;BMP_pressure;BME280_temperature;BME280_humidity;BME280_pressure;Samples;Min_cycle;Max_cycle;Signal;HPM_P1;HPM_P2
2022/03/19 00:00:26;;;;;;;14.37;3.53;;;3.90;99.90;;;;;;4900224;29;20040;-86
2022/03/19 00:02:52;;;;;;;11.83;3.40;;;3.90;99.90;;;;;;4899289;29;20118;-86
2022/03/19 00:05:18;;;;;;;12.67;3.30;;;3.80;99.90;;;;;;4899904;29;20507;-86
2022/03/19 00:07:43;;;;;;;12.77;3.20;;;3.80;99.90;;;;;;4900020;29;20045;-86
2022/03/19 00:10:10;;;;;;;13.57;3.23;;;3.80;99.90;;;;;;4899811;29;20052;-86
2022/03/19 00:12:38;;;;;;;14.30;3.83;;;3.70;99.90;;;;;;4899922;29;20076;-86
2022/03/19 00:15:04;;;;;;;15.73;3.20;;;3.70;99.90;;;;;;4882886;29;20438;-86
2022/03/19 00:17:30;;;;;;;14.50;3.50;;;3.70;99.90;;;;;;4882473;29;20444;-86
2022/03/19 00:19:55;;;;;;;13.07;3.23;;;3.70;99.90;;;;;;4883081;29;20045;-86
2022/03/19 00:22:21;;;;;;;12.47;3.43;;;3.60;99.90;;;;;;4882584;29;20111;-86
2022/03/19 00:24:47;;;;;;;14.30;3.43;;;3.60;99.90;;;;;;4882234;29;20067;-86
2022/03/19 00:27:12;;;;;;;14.10;3.20;;;3.60;99.90;;;;;;4882765;29;20057;-86
2022/03/19 00:29:38;;;;;;;13.17;3.20;;;3.50;99.90;;;;;;4899769;29;20037;-86
2022/03/19 00:32:04;;;;;;;12.03;3.63;;;3.50;99.90;;;;;;4898195;29;20449;-86
2022/03/19 00:34:29;;;;;;;11.50;3.20;;;3.50;99.90;;;;;;4882373;29;20049;-86
2022/03/19 00:36:56;;;;;;;14.13;3.47;;;3.50;99.90;;;;;;4905197;29;20048;-86
2022/03/19 00:39:21;;;;;;;13.53;4.37;;;3.40;99.90;;;;;;4917355;29;20055;-85
2022/03/19 00:41:47;;;;;;;17.43;4.27;;;3.40;99.90;;;;;;4901301;29;20044;-86
2022/03/19 00:44:12;;;;;;;19.93;3.97;;;3.40;99.90;;;;;;4900291;29;20055;-86
2022/03/19 00:46:38;;;;;;;14.70;3.60;;;3.40;99.90;;;;;;4918426;29;20051;-86
2022/03/19 00:49:03;;;;;;;14.00;3.33;;;3.40;99.90;;;;;;4901192;29;20143;-86
2022/03/19 00:51:31;;;;;;;14.03;3.70;;;3.40;99.90;;;;;;4900320;29;20128;-86
2022/03/19 00:53:56;;;;;;;14.90;4.27;;;3.60;99.90;;;;;;4918307;29;20058;-86
2022/03/19 00:56:22;;;;;;;14.90;3.10;;;3.40;99.90;;;;;;4917797;29;20489;-86
2022/03/19 00:58:47;;;;;;;14.60;3.70;;;3.40;99.90;;;;;;4900031;29;20048;-86
2022/03/19 01:01:13;;;;;;;11.87;3.23;;;3.30;99.90;;;;;;4917723;29;20055;-86
2022/03/19 01:03:38;;;;;;;17.50;3.80;;;3.30;99.90;;;;;;4900641;29;20060;-86
2022/03/19 01:06:04;;;;;;;14.23;3.20;;;3.30;99.90;;;;;;4916916;29;20051;-86
2022/03/19 01:08:30;;;;;;;16.43;3.50;;;3.30;99.90;;;;;;4900705;29;20059;-86
2022/03/19 01:10:56;;;;;;;13.20;3.47;;;3.30;99.90;;;;;;4917854;29;20131;-86
2022/03/19 01:13:21;;;;;;;13.30;3.30;;;4.30;99.90;;;;;;4916461;29;20056;-86
2022/03/19 01:15:47;;;;;;;14.60;4.20;;;3.00;99.90;;;;;;4917531;29;20099;-86
2022/03/19 01:18:13;;;;;;;17.40;3.50;;;3.20;99.90;;;;;;4917363;29;20059;-85
2022/03/19 01:20:38;;;;;;;16.70;3.53;;;3.40;99.90;;;;;;4899892;29;20217;-86
2022/03/19 01:23:05;;;;;;;13.97;3.90;;;3.20;99.90;;;;;;4917147;29;20382;-86
2022/03/19 01:25:31;;;;;;;17.30;4.23;;;3.20;99.90;;;;;;4900546;29;20044;-86
2022/03/19 01:27:56;;;;;;;15.27;3.73;;;3.20;99.90;;;;;;4916576;29;20515;-86
2022/03/19 01:30:22;;;;;;;15.80;3.83;;;3.20;99.90;;;;;;4917230;29;20044;-86
2022/03/19 01:32:48;;;;;;;12.73;3.27;;;3.20;99.90;;;;;;4917403;29;20104;-85
2022/03/19 01:35:16;;;;;;;16.43;4.50;;;3.20;99.90;;;;;;4899147;29;20063;-86
2022/03/19 01:37:42;;;;;;;15.13;3.53;;;3.20;99.90;;;;;;4888188;29;20408;-86
2022/03/19 01:40:09;;;;;;;21.27;4.50;;;3.20;99.90;;;;;;4897742;29;20048;-86
2022/03/19 01:42:38;;;;;;;13.93;4.07;;;3.10;99.90;;;;;;4897530;29;20131;-86
2022/03/19 01:45:09;;;;;;;16.67;3.70;;;3.20;99.90;;;;;;4898097;29;20064;-85
2022/03/19 01:47:34;;;;;;;15.57;3.97;;;3.20;99.90;;;;;;4897662;29;20040;-85
2022/03/19 01:50:00;;;;;;;15.87;4.57;;;3.20;99.90;;;;;;4881624;29;20113;-86
2022/03/19 01:52:28;;;;;;;13.10;3.53;;;3.10;99.90;;;;;;4897742;29;20124;-86
2022/03/19 01:54:54;;;;;;;15.20;4.07;;;3.10;99.90;;;;;;4880335;29;20492;-86
2022/03/19 01:57:23;;;;;;;12.67;3.50;;;3.10;99.90;;;;;;4880757;29;20060;-86
2022/03/19 01:59:49;;;;;;;15.23;3.73;;;3.00;99.90;;;;;;4881989;29;20044;-85
2022/03/19 02:02:15;;;;;;;16.20;3.47;;;3.00;99.90;;;;;;4880300;29;20071;-85
2022/03/19 02:04:42;;;;;;;15.00;4.17;;;3.00;99.90;;;;;;4881227;29;20494;-86
2022/03/19 02:07:10;;;;;;;14.07;3.80;;;2.90;99.90;;;;;;4880594;29;20048;-86
2022/03/19 02:09:40;;;;;;;13.53;3.50;;;2.90;99.90;;;;;;4880468;29;20057;-86
2022/03/19 02:12:06;;;;;;;14.90;3.53;;;2.90;99.90;;;;;;4898254;29;20115;-86
2022/03/19 02:14:36;;;;;;;20.37;3.80;;;2.90;99.90;;;;;;4881367;29;20048;-87
2022/03/19 02:17:04;;;;;;;15.97;4.27;;;2.80;99.90;;;;;;4897010;29;20076;-87
2022/03/19 02:19:30;;;;;;;16.47;4.33;;;2.80;99.90;;;;;;4897846;29;20051;-87
2022/03/19 02:21:56;;;;;;;14.73;4.00;;;2.70;99.90;;;;;;4897713;29;20393;-87
2022/03/19 02:27:06;;;;;;;14.90;4.30;;;2.70;99.90;;;;;;4897305;29;20093;-87
2022/03/19 02:29:32;;;;;;;16.83;4.93;;;2.70;99.90;;;;;;4897302;29;20087;-86
2022/03/19 02:32:00;;;;;;;14.90;3.97;;;2.70;99.90;;;;;;4897783;29;20049;-86
2022/03/19 02:34:26;;;;;;;17.00;4.30;;;2.60;99.90;;;;;;4880498;29;20060;-87
2022/03/19 02:36:53;;;;;;;13.03;4.27;;;2.60;99.90;;;;;;4902184;29;20071;-86
2022/03/19 02:39:31;;;;;;;15.50;4.10;;;2.70;99.90;;;;;;4916119;29;20062;-87
2022/03/19 02:42:02;;;;;;;18.73;5.00;;;2.60;99.90;;;;;;4899123;29;20052;-86
2022/03/19 02:44:28;;;;;;;18.47;4.50;;;2.70;99.90;;;;;;4915615;29;20048;-87
2022/03/19 02:47:00;;;;;;;15.13;4.73;;;2.70;99.90;;;;;;4916189;29;20477;-87
2022/03/19 02:49:26;;;;;;;16.63;4.10;;;2.70;99.90;;;;;;4915616;29;20477;-87
2022/03/19 02:51:53;;;;;;;14.60;3.73;;;2.70;99.90;;;;;;4915388;29;20044;-87
2022/03/19 02:54:24;;;;;;;17.33;4.63;;;2.70;99.90;;;;;;4916300;29;20052;-87
2022/03/19 02:56:51;;;;;;;13.70;4.10;;;2.70;99.90;;;;;;4920028;29;20056;-87
2022/03/19 02:59:20;;;;;;;16.73;3.93;;;2.70;99.90;;;;;;4902145;29;20484;-87
2022/03/19 03:01:48;;;;;;;12.80;4.20;;;2.70;99.90;;;;;;4902868;29;20048;-87
2022/03/19 03:04:14;;;;;;;16.73;4.33;;;2.70;99.90;;;;;;4919639;29;20099;-87
2022/03/19 03:06:42;;;;;;;14.73;4.30;;;2.60;99.90;;;;;;4901514;29;20048;-87
2022/03/19 03:09:08;;;;;;;15.90;4.87;;;2.60;99.90;;;;;;4902802;29;20106;-87
2022/03/19 03:11:36;;;;;;;19.97;5.07;;;2.60;99.90;;;;;;4903039;29;20096;-87
2022/03/19 03:14:02;;;;;;;17.47;4.20;;;2.50;99.90;;;;;;4919163;29;20044;-87
2022/03/19 03:16:29;;;;;;;14.30;4.27;;;2.50;99.90;;;;;;4902576;29;20048;-87
2022/03/19 03:18:56;;;;;;;14.63;4.30;;;2.50;99.90;;;;;;4919378;29;20048;-87
2022/03/19 03:21:22;;;;;;;13.87;4.20;;;2.50;99.90;;;;;;4902452;29;20107;-87
2022/03/19 03:23:48;;;;;;;16.60;4.90;;;2.50;99.90;;;;;;4902639;29;20048;-87
2022/03/19 03:26:13;;;;;;;17.43;4.37;;;2.50;99.90;;;;;;4918458;29;20044;-87
2022/03/19 03:28:39;;;;;;;15.73;4.77;;;2.50;99.90;;;;;;4919735;29;20059;-87
2022/03/19 03:31:04;;;;;;;18.30;5.07;;;2.40;99.90;;;;;;4919488;29;20127;-86
2022/03/19 03:33:30;;;;;;;17.60;4.93;;;2.40;99.90;;;;;;4901472;29;20045;-87
2022/03/19 03:35:56;;;;;;;17.63;4.83;;;2.40;99.90;;;;;;4919460;29;20448;-87
2022/03/19 03:38:21;;;;;;;15.10;4.43;;;2.30;99.90;;;;;;4919157;29;20052;-86
2022/03/19 03:40:47;;;;;;;18.53;5.13;;;2.30;99.90;;;;;;4919248;29;20052;-87
2022/03/19 03:43:12;;;;;;;14.97;4.90;;;2.20;99.90;;;;;;4901992;29;20095;-87
2022/03/19 03:45:38;;;;;;;15.43;5.07;;;2.20;99.90;;;;;;4919506;29;20075;-87
2022/03/19 03:48:04;;;;;;;16.30;4.50;;;2.20;99.90;;;;;;4902095;29;20046;-87
2022/03/19 03:50:30;;;;;;;21.10;5.13;;;3.30;99.90;;;;;;4919405;29;20123;-87
2022/03/19 03:52:55;;;;;;;19.23;5.00;;;2.10;99.90;;;;;;4902479;29;20051;-86
2022/03/19 03:55:21;;;;;;;19.87;6.50;;;2.10;99.90;;;;;;4901286;29;20092;-87
2022/03/19 03:57:47;;;;;;;20.90;5.23;;;2.10;99.90;;;;;;4918914;29;20048;-87
2022/03/19 04:00:14;;;;;;;15.77;5.13;;;2.10;99.90;;;;;;4918858;29;20048;-88
2022/03/19 04:02:40;;;;;;;16.83;5.60;;;2.10;99.90;;;;;;4918166;29;20048;-87
2022/03/19 04:05:08;;;;;;;18.10;5.37;;;2.20;99.90;;;;;;4918553;29;20048;-86
2022/03/19 04:07:34;;;;;;;17.33;5.23;;;2.10;99.90;;;;;;4918538;29;20115;-86
2022/03/19 04:09:59;;;;;;;15.47;4.93;;;2.10;99.90;;;;;;4901160;29;20500;-87
2022/03/19 04:12:25;;;;;;;17.50;5.13;;;2.10;99.90;;;;;;4901718;29;20170;-87
2022/03/19 04:14:52;;;;;;;18.27;5.70;;;2.10;99.90;;;;;;4918734;29;20044;-87
2022/03/19 04:17:18;;;;;;;20.73;5.80;;;2.20;99.90;;;;;;4901233;29;20040;-87
2022/03/19 04:19:45;;;;;;;15.37;5.00;;;2.20;99.90;;;;;;4901638;29;20067;-87
2022/03/19 04:22:11;;;;;;;18.50;6.97;;;2.20;99.90;;;;;;4901014;29;20123;-87
2022/03/19 04:24:36;;;;;;;18.40;5.20;;;2.20;99.90;;;;;;4918787;29;20081;-87
2022/03/19 04:27:02;;;;;;;19.93;5.93;;;2.20;99.90;;;;;;4918665;29;20048;-87
2022/03/19 04:29:28;;;;;;;16.73;5.50;;;2.30;99.90;;;;;;4918014;29;20048;-86
2022/03/19 04:31:54;;;;;;;15.93;5.00;;;2.20;99.90;;;;;;4901453;29;20066;-86
2022/03/19 04:34:19;;;;;;;19.77;5.57;;;2.30;99.90;;;;;;4918309;29;20044;-86
2022/03/19 04:36:45;;;;;;;17.27;5.40;;;2.30;99.90;;;;;;4917607;29;20623;-87
2022/03/19 04:39:11;;;;;;;16.80;5.10;;;2.30;99.90;;;;;;4917997;29;20139;-86
2022/03/19 04:41:37;;;;;;;17.07;4.93;;;2.30;99.90;;;;;;4918147;29;20051;-87
2022/03/19 04:44:05;;;;;;;18.13;5.77;;;2.30;99.90;;;;;;4917211;29;20370;-87
2022/03/19 04:46:30;;;;;;;15.40;5.13;;;2.20;99.90;;;;;;4901139;29;20071;-85
2022/03/19 04:48:56;;;;;;;20.13;5.07;;;2.20;99.90;;;;;;4901390;29;20051;-85
2022/03/19 04:51:29;;;;;;;16.20;4.73;;;2.10;99.90;;;;;;4900295;29;20089;-85
2022/03/19 04:53:55;;;;;;;16.10;5.17;;;2.10;99.90;;;;;;4901055;29;20555;-85
2022/03/19 04:56:27;;;;;;;15.03;5.70;;;2.00;99.90;;;;;;4900628;29;20132;-85
2022/03/19 04:58:54;;;;;;;17.17;4.70;;;2.00;99.90;;;;;;4917304;29;20111;-85
2022/03/19 05:01:20;;;;;;;18.17;5.33;;;2.00;99.90;;;;;;4917660;29;20407;-85
2022/03/19 05:03:46;;;;;;;16.87;4.80;;;2.00;99.90;;;;;;4900580;29;20048;-85
2022/03/19 05:06:11;;;;;;;17.70;5.47;;;2.00;99.90;;;;;;4915372;29;20049;-85
2022/03/19 05:08:37;;;;;;;19.27;5.30;;;2.00;99.90;;;;;;4917963;29;20044;-85
2022/03/19 05:11:17;;;;;;;17.50;6.33;;;2.00;99.90;;;;;;4900464;29;20107;-85
2022/03/19 05:13:44;;;;;;;19.20;5.10;;;2.00;99.90;;;;;;4918219;29;20048;-86
2022/03/19 05:16:13;;;;;;;14.63;4.53;;;2.00;99.90;;;;;;4918812;29;20123;-86
2022/03/19 05:18:39;;;;;;;15.10;4.60;;;2.00;99.90;;;;;;4916904;29;20048;-85
2022/03/19 05:21:05;;;;;;;12.90;4.40;;;2.00;99.90;;;;;;4917199;29;20099;-85
2022/03/19 05:23:31;;;;;;;13.50;4.20;;;2.00;99.90;;;;;;4917809;29;20060;-85
2022/03/19 05:25:58;;;;;;;13.20;4.60;;;2.00;99.90;;;;;;4916976;29;20040;-86
2022/03/19 05:28:24;;;;;;;16.37;4.77;;;2.00;99.90;;;;;;4917404;29;20130;-85
2022/03/19 05:30:50;;;;;;;14.00;4.20;;;2.00;99.90;;;;;;4903868;29;20060;-85
2022/03/19 05:33:16;;;;;;;20.97;4.90;;;1.90;99.90;;;;;;4906811;29;20463;-86
2022/03/19 05:35:42;;;;;;;16.03;4.77;;;2.00;99.90;;;;;;4918878;29;20119;-85
2022/03/19 05:38:08;;;;;;;15.43;4.10;;;1.90;99.90;;;;;;4885335;29;20056;-85
2022/03/19 05:40:34;;;;;;;15.33;4.47;;;1.90;99.90;;;;;;4897880;29;20052;-85
2022/03/19 05:43:00;;;;;;;13.27;4.77;;;1.90;99.90;;;;;;4898288;29;20072;-86
2022/03/19 05:45:26;;;;;;;14.50;4.57;;;1.90;99.90;;;;;;4881210;29;20549;-85
2022/03/19 05:47:51;;;;;;;16.50;4.60;;;2.00;99.90;;;;;;4897711;29;20080;-85
2022/03/19 05:50:17;;;;;;;16.63;5.17;;;2.00;99.90;;;;;;4881023;29;20500;-85
2022/03/19 05:52:45;;;;;;;17.17;4.60;;;2.00;99.90;;;;;;4881332;29;20052;-85
2022/03/19 05:55:11;;;;;;;14.60;4.77;;;2.00;99.90;;;;;;4897299;29;20135;-85
2022/03/19 05:57:37;;;;;;;14.43;4.33;;;2.00;99.90;;;;;;4880972;29;20084;-85
2022/03/19 06:00:04;;;;;;;16.43;4.90;;;2.10;99.90;;;;;;4881192;29;20048;-85
2022/03/19 06:02:30;;;;;;;14.53;4.70;;;2.10;99.90;;;;;;4880514;29;20064;-85
2022/03/19 06:04:55;;;;;;;13.63;4.73;;;2.10;99.90;;;;;;4898148;29;20040;-86
2022/03/19 06:07:21;;;;;;;17.03;4.83;;;2.10;99.90;;;;;;4897967;29;20052;-85
2022/03/19 06:09:47;;;;;;;16.50;5.33;;;2.20;99.90;;;;;;4896889;29;20093;-85
2022/03/19 06:12:12;;;;;;;15.97;4.80;;;2.20;99.90;;;;;;4896627;29;20047;-85
2022/03/19 06:14:38;;;;;;;16.27;4.97;;;2.20;99.90;;;;;;4879894;29;20143;-86
2022/03/19 06:17:04;;;;;;;15.90;4.77;;;2.30;99.90;;;;;;4897584;29;20092;-84
2022/03/19 06:19:29;;;;;;;15.77;4.80;;;2.30;99.90;;;;;;4898232;29;20055;-86
2022/03/19 06:21:55;;;;;;;15.50;5.00;;;2.30;99.90;;;;;;4896980;29;20160;-84
2022/03/19 06:24:23;;;;;;;17.13;4.90;;;2.40;99.90;;;;;;4880777;29;20401;-83
2022/03/19 06:26:49;;;;;;;14.73;4.83;;;2.40;99.90;;;;;;4897839;29;20053;-82
2022/03/19 06:29:15;;;;;;;18.00;5.33;;;2.40;99.90;;;;;;4896213;29;20111;-82
2022/03/19 06:31:40;;;;;;;18.87;4.90;;;2.50;99.90;;;;;;4897567;29;20508;-82
2022/03/19 06:34:06;;;;;;;17.83;4.77;;;2.50;99.90;;;;;;4880718;29;20056;-82
2022/03/19 06:39:16;;;;;;;21.63;5.28;;;2.60;99.90;;;;;;4898631;29;20501;-83
2022/03/19 06:41:41;;;;;;;13.37;4.73;;;2.60;99.90;;;;;;4916526;29;20047;-83
2022/03/19 06:44:07;;;;;;;17.30;5.20;;;2.70;99.90;;;;;;4898306;29;20107;-88
2022/03/19 06:46:33;;;;;;;16.83;5.67;;;2.70;99.90;;;;;;4900047;29;20040;-91
2022/03/19 06:48:58;;;;;;;18.53;4.80;;;3.80;99.90;;;;;;4918607;29;20059;-93
2022/03/19 06:51:24;;;;;;;12.80;4.80;;;2.90;99.90;;;;;;4899671;29;20048;-92
2022/03/19 06:54:03;;;;;;;15.33;4.90;;;2.90;99.90;;;;;;4902872;29;20050;-88
2022/03/19 06:56:28;;;;;;;16.47;5.67;;;2.60;99.90;;;;;;4921074;29;20125;-88
2022/03/19 06:59:45;;;;;;;17.33;4.80;;;2.90;99.90;;;;;;4914436;23;20052;-90
2022/03/19 07:02:11;;;;;;;17.87;5.03;;;3.30;99.90;;;;;;4900506;29;20048;-89
2022/03/19 07:04:37;;;;;;;17.23;5.30;;;2.80;99.90;;;;;;4899833;29;20184;-90
2022/03/19 07:07:11;;;;;;;20.40;5.67;;;3.10;99.90;;;;;;4916640;29;20080;-91
2022/03/19 07:09:37;;;;;;;18.93;5.60;;;3.10;99.90;;;;;;4905913;23;20067;-91
2022/03/19 07:12:04;;;;;;;17.87;5.40;;;3.30;99.90;;;;;;4898472;29;20048;-90
2022/03/19 07:14:48;;;;;;;14.43;5.00;;;3.60;99.90;;;;;;4916129;29;20413;-88
2022/03/19 07:17:29;;;;;;;16.25;4.60;;;3.40;99.90;;;;;;4916388;29;20493;-89
2022/03/19 07:19:54;;;;;;;15.87;5.50;;;4.70;99.90;;;;;;4900829;29;20052;-89
2022/03/19 07:22:26;;;;;;;14.60;4.80;;;3.80;99.90;;;;;;4899162;29;20055;-88
2022/03/19 07:25:00;;;;;;;14.80;5.03;;;3.90;99.90;;;;;;4905683;23;20063;-90
2022/03/19 07:27:26;;;;;;;16.50;5.30;;;4.80;99.90;;;;;;4916158;29;20055;-91
2022/03/19 07:30:04;;;;;;;18.63;5.40;;;4.20;99.90;;;;;;4910043;23;20135;-90
2022/03/19 07:33:20;;;;;;;21.07;6.03;;;4.20;99.90;;;;;;4915631;29;20139;-90
2022/03/19 07:36:11;;;;;;;14.93;5.23;;;4.30;99.90;;;;;;4899199;29;20094;-90
2022/03/19 07:38:46;;;;;;;15.60;5.23;;;5.70;99.90;;;;;;4900050;29;20522;-90
2022/03/19 07:44:39;;;;;;;21.67;5.80;;;6.40;99.90;;;;;;4902538;29;20583;-90
2022/03/19 07:47:20;;;;;;;13.73;4.57;;;4.40;99.90;;;;;;4919087;29;20127;-90
2022/03/19 07:50:03;;;;;;;17.77;5.63;;;4.70;99.90;;;;;;4920384;29;20044;-90
2022/03/19 07:52:43;;;;;;;15.70;4.20;;;4.90;99.90;;;;;;4919264;29;20052;-90
2022/03/19 07:55:25;;;;;;;13.17;4.43;;;4.20;99.90;;;;;;4901585;29;20675;-90
2022/03/19 07:57:56;;;;;;;14.80;4.37;;;4.90;99.90;;;;;;4902683;29;20100;-91
2022/03/19 08:00:40;;;;;;;15.77;4.23;;;4.90;99.90;;;;;;4901235;29;20480;-90
2022/03/19 08:03:24;;;;;;;13.68;4.20;;;4.70;99.90;;;;;;4919844;29;20044;-90
2022/03/19 08:06:15;;;;;;;16.23;5.07;;;5.20;99.90;;;;;;4903206;29;20051;-87
2022/03/19 08:08:41;;;;;;;18.60;4.53;;;5.40;99.90;;;;;;4918438;29;20393;-86
2022/03/19 08:11:07;;;;;;;16.97;4.40;;;5.50;99.90;;;;;;4903120;29;20044;-87
2022/03/19 08:13:32;;;;;;;13.40;4.57;;;5.60;99.90;;;;;;4920242;29;20052;-87
2022/03/19 08:15:58;;;;;;;16.40;4.37;;;5.80;99.90;;;;;;4918445;29;20107;-87
2022/03/19 08:18:24;;;;;;;15.27;4.40;;;6.50;99.90;;;;;;4918236;29;20081;-87
2022/03/19 08:20:50;;;;;;;19.80;4.53;;;5.90;99.90;;;;;;4901932;29;20048;-87
2022/03/19 08:23:15;;;;;;;17.07;3.90;;;6.10;99.90;;;;;;4918645;29;20036;-88
2022/03/19 08:25:44;;;;;;;17.10;4.17;;;6.20;99.90;;;;;;4902743;29;20040;-88
2022/03/19 08:28:10;;;;;;;18.20;4.37;;;7.40;99.90;;;;;;4901829;29;20130;-87
2022/03/19 08:30:36;;;;;;;14.33;4.20;;;6.40;99.90;;;;;;4900977;29;20139;-87
2022/03/19 08:33:02;;;;;;;22.20;4.27;;;7.30;99.90;;;;;;4918649;29;20056;-87
2022/03/19 08:35:28;;;;;;;12.97;3.70;;;6.60;99.90;;;;;;4917732;29;20107;-88
2022/03/19 08:40:15;;;;;;;15.23;3.93;;;6.80;99.90;;;;;;4902936;23;20052;-87
2022/03/19 08:40:39;;;;;;;14.93;4.03;;;7.00;99.90;;;;;;4885693;29;20500;-87
2022/03/19 08:43:05;;;;;;;11.90;3.47;;;7.00;99.90;;;;;;4886586;29;20084;-89
2022/03/19 08:45:30;;;;;;;13.13;3.90;;;7.10;99.90;;;;;;4900564;29;20079;-87
2022/03/19 08:47:56;;;;;;;17.57;4.23;;;7.90;99.90;;;;;;4897382;29;20068;-87
2022/03/19 08:50:24;;;;;;;16.90;3.83;;;7.30;99.90;;;;;;4897999;29;20421;-87
2022/03/19 08:52:49;;;;;;;15.60;3.37;;;7.40;99.90;;;;;;4881731;29;20123;-87
2022/03/19 08:55:22;;;;;;;13.97;3.67;;;7.40;99.90;;;;;;4882421;29;20135;-90
2022/03/19 08:57:48;;;;;;;12.18;3.50;;;7.60;99.90;;;;;;4881080;29;20127;-88
2022/03/19 09:00:14;;;;;;;14.73;3.53;;;7.60;99.90;;;;;;4898633;29;20127;-88
2022/03/19 09:02:40;;;;;;;14.37;2.80;;;7.70;99.90;;;;;;4899138;29;20051;-88
2022/03/19 09:05:06;;;;;;;13.70;3.60;;;7.80;99.90;;;;;;4897729;29;20048;-88
2022/03/19 09:07:32;;;;;;;16.10;3.27;;;7.80;99.90;;;;;;4882191;29;20060;-89
2022/03/19 09:09:58;;;;;;;15.13;3.43;;;7.90;99.90;;;;;;4883714;29;20059;-88
2022/03/19 09:12:38;;;;;;;14.13;3.53;;;8.00;99.90;;;;;;4898185;29;20056;-88
2022/03/19 09:15:16;;;;;;;17.73;3.70;;;8.10;99.90;;;;;;4881712;29;20041;-89
2022/03/19 09:17:42;;;;;;;13.80;3.20;;;7.80;99.90;;;;;;4897770;29;20048;-89
2022/03/19 09:20:16;;;;;;;12.93;3.20;;;8.40;99.90;;;;;;4901203;29;20204;-89
2022/03/19 09:22:42;;;;;;;12.13;2.83;;;8.20;99.90;;;;;;4899064;29;20488;-88
2022/03/19 09:25:23;;;;;;;12.53;2.80;;;8.00;99.90;;;;;;4897787;29;20048;-89
2022/03/19 09:27:57;;;;;;;12.27;2.70;;;8.90;99.90;;;;;;4898425;29;20052;-88
2022/03/19 09:30:32;;;;;;;11.40;2.80;;;8.40;99.90;;;;;;4898608;29;20128;-88
2022/03/19 09:32:58;;;;;;;10.70;2.90;;;9.30;99.90;;;;;;4898061;29;20041;-89
2022/03/19 09:35:32;;;;;;;14.23;2.93;;;9.00;99.90;;;;;;4897767;29;20386;-89
2022/03/19 09:37:58;;;;;;;11.27;3.03;;;8.70;99.90;;;;;;4898375;29;20058;-89
2022/03/19 09:41:14;;;;;;;13.23;3.13;;;8.80;99.90;;;;;;4897757;29;20086;-88
2022/03/19 09:44:05;;;;;;;15.40;2.93;;;9.20;99.90;;;;;;4897893;29;20108;-88
2022/03/19 09:46:34;;;;;;;11.03;3.07;;;9.20;99.90;;;;;;4897169;29;20060;-89
2022/03/19 09:49:19;;;;;;;12.30;2.65;;;9.20;99.90;;;;;;4901040;29;20162;-89
2022/03/19 09:52:38;;;;;;;13.10;2.70;;;9.40;99.90;;;;;;4899061;29;20540;-93
2022/03/19 09:55:26;;;;;;;11.23;2.70;;;9.90;99.90;;;;;;4898787;29;20347;-95
2022/03/19 09:58:05;;;;;;;12.43;3.00;;;9.80;99.90;;;;;;4883707;29;20080;-96
2022/03/19 10:00:52;;;;;;;10.38;2.58;;;10.50;99.90;;;;;;5136635;23;20054;-96
2022/03/19 10:03:24;;;;;;;11.20;2.83;;;10.00;99.90;;;;;;4896229;29;20045;-96
2022/03/19 10:09:01;;;;;;;9.60;2.60;;;9.30;99.90;;;;;;4882098;29;20049;-96
2022/03/19 10:11:37;;;;;;;12.90;2.78;;;10.20;99.90;;;;;;4881163;29;20051;-92
2022/03/19 10:14:25;;;;;;;8.75;2.60;;;10.60;99.90;;;;;;4880387;29;20060;-93
2022/03/19 10:16:59;;;;;;;13.82;3.17;;;10.50;99.90;;;;;;4896880;29;20072;-94
2022/03/19 10:19:28;;;;;;;9.52;2.58;;;11.70;99.90;;;;;;4898464;29;20045;-94
2022/03/19 10:22:08;;;;;;;10.07;2.40;;;11.50;99.90;;;;;;4880921;29;20044;-91
2022/03/19 10:30:49;;;;;;;9.75;2.90;;;10.80;99.90;;;;;;4914013;29;20127;-92
2022/03/19 10:33:25;;;;;;;9.35;2.63;;;10.00;99.90;;;;;;4900943;29;20056;-95
2022/03/19 10:35:50;;;;;;;13.13;3.03;;;11.20;99.90;;;;;;4917293;29;20544;-93
2022/03/19 10:38:41;;;;;;;8.75;2.33;;;10.60;99.90;;;;;;4902393;29;20108;-88
2022/03/19 10:41:06;;;;;;;8.77;2.28;;;11.50;99.90;;;;;;4916670;29;20048;-88
2022/03/19 10:43:32;;;;;;;10.35;2.10;;;12.00;99.90;;;;;;4915886;29;20059;-89
2022/03/19 10:45:59;;;;;;;8.10;2.42;;;11.80;99.90;;;;;;4899542;29;20123;-88
2022/03/19 10:48:26;;;;;;;8.85;2.28;;;12.10;99.90;;;;;;4915839;29;20079;-89
2022/03/19 10:51:08;;;;;;;7.63;2.25;;;12.20;99.90;;;;;;4898506;29;20397;-89
2022/03/19 10:53:44;;;;;;;10.30;2.30;;;12.10;99.90;;;;;;4898314;29;20055;-89
2022/03/19 10:56:19;;;;;;;10.57;2.05;;;12.40;99.80;;;;;;4898722;29;20052;-91
2022/03/19 10:59:06;;;;;;;9.48;2.28;;;12.70;99.50;;;;;;4899738;29;20131;-89
2022/03/19 11:04:37;;;;;;;8.65;2.20;;;12.80;97.00;;;;;;4922534;23;20056;-88
2022/03/19 11:07:11;;;;;;;10.65;2.10;;;13.00;95.30;;;;;;4897923;29;20040;-88
2022/03/19 11:09:40;;;;;;;8.85;2.15;;;12.80;96.80;;;;;;4898709;29;20052;-89
2022/03/19 11:12:18;;;;;;;9.15;2.47;;;13.10;98.40;;;;;;4917927;29;20075;-89
2022/03/19 11:15:10;;;;;;;9.15;2.38;;;13.20;96.20;;;;;;4922166;23;20092;-89
2022/03/19 11:17:45;;;;;;;8.20;2.65;;;14.00;95.30;;;;;;4902034;29;20056;-88
2022/03/19 11:20:26;;;;;;;8.20;2.13;;;14.60;95.70;;;;;;4919525;29;20083;-89
2022/03/19 11:23:07;;;;;;;8.27;2.42;;;13.20;93.50;;;;;;4903313;29;20063;-89
2022/03/19 11:25:50;;;;;;;10.55;2.42;;;14.20;93.90;;;;;;4919453;29;20055;-89
2022/03/19 11:28:26;;;;;;;8.10;2.17;;;14.10;94.40;;;;;;4902280;29;20432;-89
2022/03/19 11:31:08;;;;;;;8.38;2.13;;;13.30;94.20;;;;;;4902441;29;20484;-89
2022/03/19 11:33:50;;;;;;;8.18;2.10;;;13.50;93.00;;;;;;4919103;29;20040;-89
2022/03/19 11:36:30;;;;;;;8.27;2.22;;;13.30;93.40;;;;;;4971141;23;20148;-88
2022/03/19 11:39:47;;;;;;;8.93;2.28;;;13.50;94.30;;;;;;4902403;29;20056;-88
2022/03/19 11:42:49;;;;;;;6.95;2.30;;;13.80;92.10;;;;;;4902110;29;20531;-89
2022/03/19 11:45:15;;;;;;;8.13;2.42;;;13.50;91.60;;;;;;4918179;29;20111;-89
2022/03/19 11:48:42;;;;;;;6.95;2.20;;;13.80;94.20;;;;;;4921116;29;20052;-89
2022/03/19 11:51:54;;;;;;;8.25;2.38;;;14.00;92.90;;;;;;4917514;29;20100;-94
2022/03/19 11:55:08;;;;;;;7.18;2.25;;;13.90;91.50;;;;;;4938880;29;20036;-92
2022/03/19 11:57:55;;;;;;;8.40;2.30;;;14.70;90.50;;;;;;4937518;29;20056;-89
2022/03/19 12:01:00;;;;;;;8.80;2.13;;;14.00;91.00;;;;;;4920819;29;20167;-92
2022/03/19 12:04:10;;;;;;;8.43;2.40;;;14.90;91.00;;;;;;4903134;29;20052;-92
2022/03/19 12:07:41;;;;;;;24.48;4.53;;;14.00;88.40;;;;;;4900714;29;20131;-92
2022/03/19 12:10:20;;;;;;;8.20;2.28;;;14.00;89.00;;;;;;4813025;29;20054;-92
2022/03/19 12:12:57;;;;;;;8.52;2.38;;;12.30;89.80;;;;;;4795679;29;20065;-95
2022/03/19 12:15:38;;;;;;;8.55;2.30;;;12.80;88.70;;;;;;4819630;29;20062;-90
2022/03/19 12:18:46;;;;;;;7.72;2.20;;;14.80;90.40;;;;;;4809723;29;20058;-92
2022/03/19 12:21:23;;;;;;;7.90;2.22;;;14.20;88.00;;;;;;4893246;29;20060;-95
2022/03/19 12:24:50;;;;;;;8.07;2.30;;;14.70;90.20;;;;;;4923114;29;20052;-96
2022/03/19 12:27:38;;;;;;;10.60;2.15;;;14.40;90.50;;;;;;4877879;29;20052;-96
2022/03/19 12:33:16;;;;;;;7.03;1.88;;;14.80;88.30;;;;;;4904714;29;20492;-96
2022/03/19 12:39:27;;;;;;;7.07;1.80;;;14.30;80.00;;;;;;4907465;29;20548;-95
2022/03/19 12:41:57;;;;;;;7.57;1.90;;;13.10;81.40;;;;;;4910758;29;20048;-94
2022/03/19 12:44:36;;;;;;;7.05;1.90;;;14.20;80.20;;;;;;4894893;29;20052;-96
2022/03/19 12:47:07;;;;;;;7.80;1.92;;;14.30;79.10;;;;;;4905294;29;20053;-96
2022/03/19 12:49:33;;;;;;;8.55;1.90;;;14.60;80.30;;;;;;4923294;29;20063;-96
2022/03/19 12:52:10;;;;;;;8.75;2.22;;;14.50;81.10;;;;;;4899138;29;20049;-96
2022/03/19 12:58:51;;;;;;;7.80;2.00;;;14.80;79.50;;;;;;4915081;29;20091;-96
2022/03/19 13:01:22;;;;;;;10.68;2.42;;;14.50;75.90;;;;;;4943303;23;20075;-96
2022/03/19 13:03:56;;;;;;;11.75;2.50;;;15.40;79.90;;;;;;4932371;29;20056;-96
2022/03/19 13:06:36;;;;;;;8.27;2.53;;;14.40;78.40;;;;;;4933429;29;20547;-96
2022/03/19 13:09:40;;;;;;;9.25;2.25;;;14.40;78.20;;;;;;4926841;29;20123;-96
2022/03/19 13:12:45;;;;;;;8.45;2.47;;;15.20;79.40;;;;;;4928005;29;20056;-96
2022/03/19 13:15:16;;;;;;;7.82;2.20;;;14.50;79.70;;;;;;4876155;29;20052;-96
2022/03/19 13:17:47;;;;;;;8.38;2.47;;;15.20;79.90;;;;;;4927222;29;20161;-96
2022/03/19 13:20:16;;;;;;;11.30;2.50;;;16.00;82.00;;;;;;4911765;29;20076;-95
2022/03/19 13:22:46;;;;;;;8.30;2.20;;;14.80;80.80;;;;;;4894554;29;20143;-96
2022/03/19 13:25:18;;;;;;;9.20;2.45;;;14.50;81.30;;;;;;4929177;29;20052;-96
2022/03/19 13:27:56;;;;;;;9.20;2.40;;;14.90;79.90;;;;;;4910592;29;20052;-96
2022/03/19 13:36:21;;;;;;;8.93;2.47;;;14.90;80.80;;;;;;4898434;29;20057;-96
2022/03/19 13:38:56;;;;;;;7.88;2.42;;;14.70;81.30;;;;;;4888359;29;20508;-96
2022/03/19 13:41:29;;;;;;;8.32;2.65;;;14.80;81.20;;;;;;4910535;23;20206;-96
2022/03/19 13:44:02;;;;;;;9.10;2.80;;;14.80;82.00;;;;;;4883249;29;20064;-96
2022/03/19 13:46:28;;;;;;;11.23;2.65;;;14.50;82.50;;;;;;4888754;29;20064;-96